Time;durP1;ratioP1;P1;durP2;ratioP2;P2;SDS_P1;SDS_P2;PMS_P1;PMS_P2;Temp;Humidity;BMP_temperature;BMP_pressure;BME280_temperature;BME280_humidity;BME280_pressure;Samples;Min_cycle;Max_cycle;Signal;HPM_P1;HPM_P2
2022/09/07 00:04:50;;;;;;;6.95;3.40;;;;;;;;;;10032290;28;20058;-65
2022/09/07 00:09:43;;;;;;;3.88;2.50;;;;;;;;;;10021687;28;20041;-65
2022/09/07 00:14:39;;;;;;;5.07;2.90;;;;;;;;;;10030805;28;20049;-66
2022/09/07 00:19:36;;;;;;;9.88;4.95;;;;;;;;;;10048953;28;20407;-67
2022/09/07 00:24:31;;;;;;;9.40;4.57;;;;;;;;;;10047848;28;20057;-68
2022/09/07 00:29:25;;;;;;;11.38;4.20;;;;;;;;;;10049415;28;20054;-67
2022/09/07 00:34:19;;;;;;;8.75;5.28;;;;;;;;;;10053451;28;20058;-67
2022/09/07 00:39:13;;;;;;;14.25;5.63;;;;;;;;;;10057962;28;20042;-66
2022/09/07 00:44:58;;;;;;;11.85;6.00;;;;;;;;;;10051788;28;20053;-67
2022/09/07 00:49:56;;;;;;;13.23;4.88;;;;;;;;;;9919989;28;20048;-67
2022/09/07 00:54:53;;;;;;;7.50;3.90;;;;;;;;;;10049536;28;20062;-66
2022/09/07 00:59:50;;;;;;;6.85;4.60;;;;;;;;;;10040460;28;20050;-66
2022/09/07 01:04:47;;;;;;;6.90;4.28;;;;;;;;;;10037635;28;20061;-67
2022/09/07 01:09:41;;;;;;;8.80;4.40;;;;;;;;;;10033380;28;20046;-67
2022/09/07 01:14:46;;;;;;;5.15;4.65;;;;;;;;;;10050099;28;20045;-67
2022/09/07 01:19:48;;;;;;;7.97;4.80;;;;;;;;;;10039034;28;20046;-68
2022/09/07 01:25:11;;;;;;;8.27;3.90;;;;;;;;;;10047857;28;20447;-67
2022/09/07 01:30:09;;;;;;;9.20;4.68;;;;;;;;;;10042923;28;20061;-66
2022/09/07 01:35:06;;;;;;;8.95;5.53;;;;;;;;;;10044109;28;20065;-66
2022/09/07 01:40:34;;;;;;;10.95;5.85;;;;;;;;;;10044687;28;20064;-64
2022/09/07 01:45:31;;;;;;;9.63;5.72;;;;;;;;;;10046685;28;20054;-64
2022/09/07 01:50:51;;;;;;;6.90;5.38;;;;;;;;;;10050305;28;20466;-64
2022/09/07 01:56:12;;;;;;;6.63;5.63;;;;;;;;;;10040669;28;20053;-64
2022/09/07 02:01:10;;;;;;;11.55;6.32;;;;;;;;;;10036614;28;20423;-65
2022/09/07 02:06:16;;;;;;;10.45;7.40;;;;;;;;;;10031616;28;20603;-64
2022/09/07 02:11:13;;;;;;;10.77;6.45;;;;;;;;;;10045679;28;20133;-64
2022/09/07 02:16:16;;;;;;;14.43;6.60;;;;;;;;;;10038856;28;20420;-64
2022/09/07 02:21:10;;;;;;;9.02;6.80;;;;;;;;;;10046605;28;20056;-68
2022/09/07 02:26:06;;;;;;;9.98;6.93;;;;;;;;;;10031880;28;20054;-67
2022/09/07 02:31:00;;;;;;;12.80;6.50;;;;;;;;;;9991640;28;20055;-69
2022/09/07 02:35:54;;;;;;;10.95;6.93;;;;;;;;;;9992996;28;20517;-68
2022/09/07 02:40:55;;;;;;;12.35;8.40;;;;;;;;;;9994238;28;20141;-68
2022/09/07 02:46:12;;;;;;;8.30;7.43;;;;;;;;;;9994139;28;20056;-68
2022/09/07 02:51:08;;;;;;;;;;;;;;;;;;9993358;28;20496;-66
2022/09/07 02:56:24;;;;;;;12.00;8.70;;;;;;;;;;9998016;28;20008;-71
2022/09/07 03:01:34;;;;;;;15.70;8.55;;;;;;;;;;9976590;28;20138;-68
2022/09/07 03:06:37;;;;;;;11.98;8.55;;;;;;;;;;9973444;28;20086;-65
2022/09/07 03:11:31;;;;;;;8.98;7.90;;;;;;;;;;9995265;28;20053;-67
2022/09/07 03:16:27;;;;;;;10.93;7.25;;;;;;;;;;9982023;28;21566;-65
2022/09/07 03:21:22;;;;;;;8.05;6.55;;;;;;;;;;9968661;28;20042;-67
2022/09/07 03:26:26;;;;;;;14.25;5.00;;;;;;;;;;9978671;28;20104;-67
2022/09/07 03:31:20;;;;;;;10.13;4.80;;;;;;;;;;10030021;28;20061;-66
2022/09/07 03:36:15;;;;;;;11.23;4.68;;;;;;;;;;10047896;28;20076;-65
2022/09/07 03:41:11;;;;;;;8.35;3.83;;;;;;;;;;10044060;28;20054;-67
2022/09/07 03:46:05;;;;;;;6.90;4.75;;;;;;;;;;10014579;28;20060;-66
2022/09/07 03:51:05;;;;;;;10.38;6.80;;;;;;;;;;10032124;28;20057;-66
2022/09/07 03:56:05;;;;;;;11.35;6.05;;;;;;;;;;10026641;28;20468;-66
2022/09/07 04:00:59;;;;;;;6.13;5.53;;;;;;;;;;10056651;28;20045;-66
2022/09/07 04:05:56;;;;;;;7.97;6.05;;;;;;;;;;10062434;28;20500;-66
2022/09/07 04:10:50;;;;;;;8.80;5.63;;;;;;;;;;10043767;28;20061;-66
2022/09/07 04:15:46;;;;;;;5.10;3.88;;;;;;;;;;10041467;28;20184;-66
2022/09/07 04:20:46;;;;;;;4.68;3.75;;;;;;;;;;10041397;28;20136;-66
2022/09/07 04:25:46;;;;;;;7.05;4.38;;;;;;;;;;10053045;28;20219;-66
2022/09/07 04:30:41;;;;;;;7.53;4.63;;;;;;;;;;10057522;28;20060;-67
2022/09/07 04:35:39;;;;;;;8.00;3.95;;;;;;;;;;10059619;28;20073;-67
2022/09/07 04:40:33;;;;;;;13.30;3.88;;;;;;;;;;10062288;28;20045;-67
2022/09/07 04:45:27;;;;;;;11.18;4.10;;;;;;;;;;10056771;28;20141;-64
2022/09/07 04:50:23;;;;;;;11.40;4.75;;;;;;;;;;10029735;28;20457;-63
2022/09/07 04:55:18;;;;;;;13.13;4.50;;;;;;;;;;10038808;28;20092;-64
2022/09/07 05:00:14;;;;;;;7.28;4.00;;;;;;;;;;10032005;28;20053;-63
2022/09/07 05:05:08;;;;;;;8.90;4.75;;;;;;;;;;10035636;28;20459;-66
2022/09/07 05:10:03;;;;;;;5.43;3.67;;;;;;;;;;10033240;28;20045;-64
2022/09/07 05:14:57;;;;;;;4.90;3.75;;;;;;;;;;10036750;28;20057;-64
2022/09/07 05:19:51;;;;;;;17.58;6.40;;;;;;;;;;10034011;28;20077;-64
2022/09/07 05:24:47;;;;;;;7.65;3.05;;;;;;;;;;10033059;28;20089;-64
2022/09/07 05:29:41;;;;;;;9.35;4.22;;;;;;;;;;10034973;28;20132;-65
2022/09/07 05:34:57;;;;;;;8.50;4.13;;;;;;;;;;10051971;28;20156;-63
2022/09/07 05:39:55;;;;;;;9.10;4.50;;;;;;;;;;10057187;28;20103;-67
2022/09/07 05:44:50;;;;;;;7.22;3.67;;;;;;;;;;10046865;28;20050;-69
2022/09/07 05:49:43;;;;;;;13.65;4.57;;;;;;;;;;10046343;28;20053;-68
2022/09/07 05:54:36;;;;;;;6.57;4.00;;;;;;;;;;10049150;28;20052;-69
2022/09/07 05:59:29;;;;;;;10.02;4.28;;;;;;;;;;10024036;28;20404;-69
2022/09/07 06:04:25;;;;;;;8.48;3.58;;;;;;;;;;10043621;28;20129;-69
2022/09/07 06:09:21;;;;;;;11.52;3.55;;;;;;;;;;10054955;28;20548;-68
2022/09/07 06:14:20;;;;;;;11.10;3.63;;;;;;;;;;10066933;28;20148;-65
2022/09/07 06:19:15;;;;;;;16.42;4.68;;;;;;;;;;10057090;28;20050;-65
2022/09/07 06:24:09;;;;;;;6.68;4.13;;;;;;;;;;10049461;28;20400;-65
2022/09/07 06:29:03;;;;;;;8.02;4.68;;;;;;;;;;10066144;28;20562;-64
2022/09/07 06:33:57;;;;;;;20.60;6.80;;;;;;;;;;10066557;28;20061;-65
2022/09/07 06:38:53;;;;;;;11.60;5.18;;;;;;;;;;10057249;28;20480;-64
2022/09/07 06:43:46;;;;;;;10.10;4.93;;;;;;;;;;10057135;28;20049;-65
2022/09/07 06:48:40;;;;;;;7.57;5.35;;;;;;;;;;10048730;28;20053;-65
2022/09/07 06:53:38;;;;;;;15.02;4.90;;;;;;;;;;10031508;28;20088;-65
2022/09/07 06:58:36;;;;;;;8.93;4.13;;;;;;;;;;10042667;28;20041;-65
2022/09/07 07:03:33;;;;;;;13.47;4.87;;;;;;;;;;10058783;28;20569;-65
2022/09/07 07:08:27;;;;;;;4.95;4.30;;;;;;;;;;10053145;28;20403;-65
2022/09/07 07:13:22;;;;;;;9.75;4.82;;;;;;;;;;10047713;28;20055;-65
2022/09/07 07:18:13;;;;;;;36.13;7.93;;;;;;;;;;10050934;28;20038;-65
2022/09/07 07:23:13;;;;;;;11.18;4.03;;;;;;;;;;10042627;28;20045;-65
2022/09/07 07:28:07;;;;;;;9.82;4.78;;;;;;;;;;10062545;28;20061;-65
2022/09/07 07:33:21;;;;;;;9.07;4.20;;;;;;;;;;10071732;28;20049;-65
2022/09/07 07:38:15;;;;;;;6.55;4.00;;;;;;;;;;10071867;28;20057;-65
2022/09/07 07:43:29;;;;;;;9.60;4.78;;;;;;;;;;10061183;28;20087;-65
2022/09/07 07:48:23;;;;;;;12.13;5.25;;;;;;;;;;10070892;28;20175;-65
2022/09/07 07:53:18;;;;;;;9.35;5.15;;;;;;;;;;10057795;28;20566;-65
2022/09/07 07:58:33;;;;;;;5.63;4.78;;;;;;;;;;10056435;28;20049;-63
2022/09/07 08:03:27;;;;;;;8.98;4.90;;;;;;;;;;10055393;28;20058;-64
2022/09/07 08:08:22;;;;;;;7.72;4.00;;;;;;;;;;10063577;28;20057;-63
2022/09/07 08:13:16;;;;;;;5.90;4.10;;;;;;;;;;10068175;28;20504;-64
2022/09/07 08:18:11;;;;;;;9.60;4.20;;;;;;;;;;10057874;28;20045;-64
2022/09/07 08:23:09;;;;;;;6.55;4.22;;;;;;;;;;10063489;28;20176;-64
2022/09/07 08:28:03;;;;;;;7.53;4.22;;;;;;;;;;10061375;28;20085;-64
2022/09/07 08:32:57;;;;;;;8.23;3.92;;;;;;;;;;10060895;28;20500;-64
2022/09/07 08:37:51;;;;;;;10.88;4.28;;;;;;;;;;10056187;28;20140;-64
2022/09/07 08:42:50;;;;;;;9.05;3.35;;;;;;;;;;10061769;28;20082;-62
2022/09/07 08:47:50;;;;;;;12.82;4.78;;;;;;;;;;10060033;28;20121;-62
2022/09/07 08:52:43;;;;;;;5.55;3.67;;;;;;;;;;10045962;28;20461;-62
2022/09/07 08:57:40;;;;;;;8.70;3.10;;;;;;;;;;10045963;28;20050;-64
2022/09/07 09:02:34;;;;;;;11.68;3.13;;;;;;;;;;10062982;28;20128;-62
2022/09/07 09:08:11;;;;;;;7.25;3.42;;;;;;;;;;10042376;28;20168;-63
2022/09/07 09:13:13;;;;;;;9.50;3.67;;;;;;;;;;9946357;28;20140;-63
2022/09/07 09:18:28;;;;;;;12.13;4.53;;;;;;;;;;10049375;28;20052;-62
2022/09/07 09:23:29;;;;;;;15.18;4.38;;;;;;;;;;10053839;28;20099;-62
2022/09/07 09:28:23;;;;;;;10.00;4.00;;;;;;;;;;10031252;28;20449;-63
2022/09/07 09:33:24;;;;;;;9.13;4.07;;;;;;;;;;10053075;28;20049;-62
2022/09/07 09:38:29;;;;;;;8.85;3.47;;;;;;;;;;10052472;28;20045;-63
2022/09/07 09:43:44;;;;;;;4.13;3.30;;;;;;;;;;10043201;28;20502;-62
2022/09/07 09:48:40;;;;;;;10.33;4.77;;;;;;;;;;10029508;28;20062;-63
2022/09/07 09:53:39;;;;;;;15.65;4.47;;;;;;;;;;10047947;28;20112;-62
2022/09/07 09:58:36;;;;;;;9.00;4.32;;;;;;;;;;10023862;28;20137;-62
2022/09/07 10:03:49;;;;;;;9.30;5.22;;;;;;;;;;10054548;28;20053;-62
2022/09/07 10:09:02;;;;;;;8.80;4.30;;;;;;;;;;9931143;28;20063;-63
2022/09/07 10:13:56;;;;;;;7.45;4.97;;;;;;;;;;9945149;28;20113;-63
2022/09/07 10:18:57;;;;;;;8.88;5.00;;;;;;;;;;9948865;28;20086;-63
2022/09/07 10:24:00;;;;;;;5.82;4.75;;;;;;;;;;9956183;28;20163;-64
2022/09/07 10:29:13;;;;;;;9.38;4.38;;;;;;;;;;10047199;28;20077;-63
2022/09/07 10:34:29;;;;;;;5.50;3.40;;;;;;;;;;10044179;28;20045;-64
2022/09/07 10:39:53;;;;;;;9.57;3.65;;;;;;;;;;10054594;28;20076;-63
2022/09/07 10:45:09;;;;;;;7.60;4.35;;;;;;;;;;10042240;28;20041;-64
2022/09/07 10:50:38;;;;;;;9.40;4.25;;;;;;;;;;10053137;28;20061;-63
2022/09/07 10:55:33;;;;;;;6.68;3.95;;;;;;;;;;10027237;28;20092;-63
2022/09/07 11:00:32;;;;;;;7.20;4.27;;;;;;;;;;10061957;28;20041;-63
2022/09/07 11:05:45;;;;;;;5.95;3.22;;;;;;;;;;10041753;28;20064;-63
2022/09/07 11:11:10;;;;;;;9.55;4.20;;;;;;;;;;10041231;28;20053;-64
2022/09/07 11:16:12;;;;;;;13.07;4.30;;;;;;;;;;10036158;28;20049;-63
2022/09/07 11:21:32;;;;;;;8.48;3.30;;;;;;;;;;10047056;28;20053;-64
2022/09/07 11:26:55;;;;;;;8.05;3.25;;;;;;;;;;10056192;28;20049;-62
2022/09/07 11:32:10;;;;;;;12.88;4.32;;;;;;;;;;10037932;28;20063;-62
2022/09/07 11:37:29;;;;;;;7.63;3.30;;;;;;;;;;10037463;28;20163;-64
2022/09/07 11:42:58;;;;;;;6.45;3.45;;;;;;;;;;10030445;28;20501;-64
2022/09/07 11:48:27;;;;;;;7.15;3.17;;;;;;;;;;10061737;28;20060;-64
2022/09/07 11:53:38;;;;;;;6.95;2.50;;;;;;;;;;10042837;28;20056;-64
2022/09/07 11:58:50;;;;;;;11.02;3.20;;;;;;;;;;10030307;28;20062;-64
2022/09/07 12:04:23;;;;;;;10.77;4.15;;;;;;;;;;10067871;28;20107;-64
2022/09/07 12:09:21;;;;;;;13.30;3.42;;;;;;;;;;10045396;28;20049;-64
2022/09/07 12:14:42;;;;;;;6.28;2.20;;;;;;;;;;10060567;28;20053;-62
2022/09/07 12:19:36;;;;;;;11.65;3.00;;;;;;;;;;10038283;28;20099;-64
2022/09/07 12:24:38;;;;;;;6.68;2.10;;;;;;;;;;10040083;28;20099;-63
2022/09/07 12:29:32;;;;;;;7.72;2.42;;;;;;;;;;10061607;28;20054;-63
2022/09/07 12:34:28;;;;;;;6.32;2.47;;;;;;;;;;10056371;28;20049;-63
2022/09/07 12:39:31;;;;;;;9.68;2.40;;;;;;;;;;10057381;28;20496;-63
2022/09/07 12:44:25;;;;;;;10.63;2.63;;;;;;;;;;10067930;28;20128;-63
2022/09/07 12:49:57;;;;;;;5.22;2.15;;;;;;;;;;10059654;28;20076;-62
2022/09/07 12:54:56;;;;;;;13.48;2.97;;;;;;;;;;10051037;28;20057;-63
2022/09/07 13:00:24;;;;;;;3.90;1.90;;;;;;;;;;10050200;28;20042;-63
2022/09/07 13:05:26;;;;;;;9.13;2.95;;;;;;;;;;10045056;28;20132;-62
2022/09/07 13:10:31;;;;;;;7.93;2.30;;;;;;;;;;10051332;28;20059;-62
2022/09/07 13:15:33;;;;;;;8.50;3.22;;;;;;;;;;10053154;28;20057;-62
2022/09/07 13:20:31;;;;;;;3.05;2.03;;;;;;;;;;10061877;28;20292;-61
2022/09/07 13:25:34;;;;;;;8.88;2.63;;;;;;;;;;10053204;28;20060;-61
2022/09/07 13:30:44;;;;;;;7.10;2.65;;;;;;;;;;10062287;28;20054;-68
2022/09/07 13:35:38;;;;;;;10.43;2.50;;;;;;;;;;10052701;28;20077;-62
2022/09/07 13:40:38;;;;;;;6.03;2.92;;;;;;;;;;10048196;28;20041;-62
2022/09/07 13:45:47;;;;;;;7.47;2.55;;;;;;;;;;10033542;28;20225;-62
2022/09/07 13:50:46;;;;;;;6.30;2.00;;;;;;;;;;10049562;28;20045;-62
2022/09/07 13:56:08;;;;;;;9.52;2.60;;;;;;;;;;10025120;28;20054;-62
2022/09/07 14:01:17;;;;;;;16.40;2.20;;;;;;;;;;10045217;28;20049;-62
2022/09/07 14:06:19;;;;;;;8.57;2.80;;;;;;;;;;10061004;28;20451;-61
2022/09/07 14:11:35;;;;;;;8.38;3.13;;;;;;;;;;10061291;28;20049;-62
2022/09/07 14:16:30;;;;;;;8.25;2.70;;;;;;;;;;10061091;28;20133;-61
2022/09/07 14:21:23;;;;;;;12.07;2.88;;;;;;;;;;10036174;28;20104;-61
2022/09/07 14:26:19;;;;;;;5.22;2.70;;;;;;;;;;10057350;28;20061;-61
2022/09/07 14:31:15;;;;;;;10.50;2.45;;;;;;;;;;10065895;28;20053;-62
2022/09/07 14:36:09;;;;;;;;;;;;;;;;;;10044276;28;20145;-62
2022/09/07 14:41:27;;;;;;;6.68;2.70;;;;;;;;;;10045502;28;20016;-62
2022/09/07 14:46:26;;;;;;;15.07;4.00;;;;;;;;;;10047161;28;20065;-62
2022/09/07 14:51:25;;;;;;;9.27;2.85;;;;;;;;;;10032184;28;20054;-61
2022/09/07 14:56:33;;;;;;;10.52;2.70;;;;;;;;;;10041373;28;20041;-61
2022/09/07 15:01:31;;;;;;;9.77;3.08;;;;;;;;;;10054693;28;20496;-61
2022/09/07 15:06:42;;;;;;;10.88;3.28;;;;;;;;;;10065799;28;20058;-61
2022/09/07 15:12:24;;;;;;;6.85;2.65;;;;;;;;;;10062840;28;20045;-61
2022/09/07 15:17:31;;;;;;;10.45;3.00;;;;;;;;;;10057855;28;20492;-61
2022/09/07 15:22:42;;;;;;;5.18;2.70;;;;;;;;;;10059573;28;20046;-61
2022/09/07 15:27:37;;;;;;;13.82;3.22;;;;;;;;;;10049186;28;20058;-62
2022/09/07 15:32:31;;;;;;;4.43;2.97;;;;;;;;;;10059248;28;20463;-62
2022/09/07 15:37:26;;;;;;;8.02;3.05;;;;;;;;;;10065086;28;20079;-62
2022/09/07 15:42:40;;;;;;;10.85;2.90;;;;;;;;;;10068502;28;20073;-62
2022/09/07 15:47:55;;;;;;;13.35;3.40;;;;;;;;;;10054096;28;20500;-62
2022/09/07 15:52:49;;;;;;;12.13;3.00;;;;;;;;;;10060637;28;20085;-61
2022/09/07 15:57:42;;;;;;;7.47;3.50;;;;;;;;;;10057869;28;20420;-61
2022/09/07 16:02:42;;;;;;;10.35;2.67;;;;;;;;;;10039384;28;20054;-62
2022/09/07 16:07:56;;;;;;;9.38;2.63;;;;;;;;;;10043494;28;20120;-62
2022/09/07 16:13:10;;;;;;;14.93;2.92;;;;;;;;;;10064244;28;20038;-63
2022/09/07 16:18:11;;;;;;;11.55;3.28;;;;;;;;;;10068517;28;20057;-64
2022/09/07 16:23:10;;;;;;;13.65;3.33;;;;;;;;;;10057150;28;20092;-62
2022/09/07 16:28:07;;;;;;;8.50;2.83;;;;;;;;;;10064409;28;20058;-62
2022/09/07 16:33:01;;;;;;;12.00;3.30;;;;;;;;;;10058085;28;20053;-64
2022/09/07 16:37:55;;;;;;;12.02;2.92;;;;;;;;;;10058596;28;20084;-62
2022/09/07 16:43:09;;;;;;;7.93;2.95;;;;;;;;;;10060892;28;20038;-62
2022/09/07 16:48:03;;;;;;;15.48;3.40;;;;;;;;;;10051867;28;20046;-62
2022/09/07 16:52:56;;;;;;;17.27;3.20;;;;;;;;;;10031715;28;20111;-62
2022/09/07 16:57:50;;;;;;;11.00;3.10;;;;;;;;;;10066058;28;20054;-62
2022/09/07 17:03:04;;;;;;;12.45;3.60;;;;;;;;;;10039514;28;20124;-61
2022/09/07 17:07:58;;;;;;;9.27;3.75;;;;;;;;;;10025180;28;20042;-61
2022/09/07 17:12:52;;;;;;;12.88;4.22;;;;;;;;;;10046083;28;20052;-63
2022/09/07 17:17:46;;;;;;;11.02;3.40;;;;;;;;;;10048074;28;20112;-63
2022/09/07 17:22:39;;;;;;;11.80;3.58;;;;;;;;;;10051372;28;20053;-64
2022/09/07 17:27:33;;;;;;;7.40;3.35;;;;;;;;;;10053808;28;20046;-65
2022/09/07 17:32:28;;;;;;;4.35;3.15;;;;;;;;;;10030401;28;20076;-66
2022/09/07 17:37:23;;;;;;;11.10;3.03;;;;;;;;;;10036868;28;20053;-63
2022/09/07 17:42:17;;;;;;;15.10;4.97;;;;;;;;;;10035472;28;20042;-63
2022/09/07 17:47:12;;;;;;;5.93;3.17;;;;;;;;;;10036754;28;20116;-64
2022/09/07 17:52:06;;;;;;;6.85;3.03;;;;;;;;;;10051645;28;20538;-64
2022/09/07 17:57:00;;;;;;;5.25;3.15;;;;;;;;;;10039761;28;20054;-64
2022/09/07 18:01:55;;;;;;;7.65;3.17;;;;;;;;;;10049481;28;20128;-65
2022/09/07 18:06:49;;;;;;;13.32;3.40;;;;;;;;;;10049526;28;20053;-64
2022/09/07 18:11:43;;;;;;;10.85;4.03;;;;;;;;;;10040250;28;20103;-63
2022/09/07 18:16:40;;;;;;;7.50;3.60;;;;;;;;;;10045033;28;20128;-63
2022/09/07 18:21:36;;;;;;;8.02;3.35;;;;;;;;;;10042234;28;20050;-63
2022/09/07 18:26:30;;;;;;;8.30;3.08;;;;;;;;;;10045498;28;20057;-63
2022/09/07 18:31:24;;;;;;;12.27;4.00;;;;;;;;;;10032869;28;20065;-63
2022/09/07 18:36:18;;;;;;;7.63;3.33;;;;;;;;;;10038086;28;20057;-63
2022/09/07 18:41:13;;;;;;;7.97;3.72;;;;;;;;;;10049755;28;20052;-63
2022/09/07 18:46:34;;;;;;;9.02;3.47;;;;;;;;;;10044376;28;20053;-63
2022/09/07 18:51:29;;;;;;;5.82;3.65;;;;;;;;;;10037028;28;20050;-63
2022/09/07 18:56:42;;;;;;;6.07;3.70;;;;;;;;;;10056626;28;20064;-63
2022/09/07 19:01:37;;;;;;;8.40;4.35;;;;;;;;;;10058462;28;20049;-63
2022/09/07 19:06:30;;;;;;;9.60;3.72;;;;;;;;;;10061313;28;20475;-63
2022/09/07 19:11:24;;;;;;;8.77;3.80;;;;;;;;;;10050435;28;20099;-63
2022/09/07 19:16:19;;;;;;;6.50;3.50;;;;;;;;;;10051476;28;20041;-63
2022/09/07 19:21:13;;;;;;;9.23;3.90;;;;;;;;;;10044501;28;20057;-63
2022/09/07 19:26:10;;;;;;;13.82;5.65;;;;;;;;;;10062479;28;20046;-63
2022/09/07 19:31:05;;;;;;;7.88;3.85;;;;;;;;;;10053281;28;20070;-63
2022/09/07 19:36:05;;;;;;;11.02;4.53;;;;;;;;;;10048206;28;20076;-62
2022/09/07 19:41:00;;;;;;;6.18;4.63;;;;;;;;;;10057206;28;20053;-63
2022/09/07 19:45:54;;;;;;;13.57;4.57;;;;;;;;;;10043337;28;20103;-63
2022/09/07 19:50:49;;;;;;;8.10;4.60;;;;;;;;;;10046165;28;20053;-64
2022/09/07 19:55:43;;;;;;;13.15;3.97;;;;;;;;;;10039692;28;20134;-62
2022/09/07 20:00:40;;;;;;;10.43;4.70;;;;;;;;;;10031002;28;20045;-65
2022/09/07 20:05:39;;;;;;;11.90;4.85;;;;;;;;;;10029145;28;20089;-63
2022/09/07 20:10:32;;;;;;;11.10;4.43;;;;;;;;;;10017185;28;20058;-62
2022/09/07 20:15:26;;;;;;;8.88;6.10;;;;;;;;;;10032155;28;20124;-64
2022/09/07 20:20:21;;;;;;;8.38;4.78;;;;;;;;;;10026736;28;20080;-63
2022/09/07 20:25:16;;;;;;;11.88;6.05;;;;;;;;;;10029008;28;20128;-62
2022/09/07 20:30:11;;;;;;;6.88;4.97;;;;;;;;;;10026442;28;20058;-63
2022/09/07 20:35:08;;;;;;;8.07;4.43;;;;;;;;;;10027955;28;20049;-65
2022/09/07 20:40:02;;;;;;;9.90;4.70;;;;;;;;;;10030075;28;20030;-65
2022/09/07 20:44:57;;;;;;;7.75;4.60;;;;;;;;;;10029290;28;20419;-65
2022/09/07 20:49:52;;;;;;;9.77;5.22;;;;;;;;;;10026690;28;20058;-66
2022/09/07 20:54:46;;;;;;;5.53;4.82;;;;;;;;;;10033353;28;20048;-65
2022/09/07 20:59:40;;;;;;;16.42;6.68;;;;;;;;;;10027889;28;20901;-64
2022/09/07 21:04:34;;;;;;;11.27;6.82;;;;;;;;;;10028449;28;20580;-65
2022/09/07 21:09:29;;;;;;;9.90;7.00;;;;;;;;;;10027382;28;20100;-65
2022/09/07 21:14:23;;;;;;;11.15;7.75;;;;;;;;;;10027402;28;20053;-65
2022/09/07 21:19:16;;;;;;;14.88;7.95;;;;;;;;;;10025202;28;20053;-66
2022/09/07 21:24:18;;;;;;;11.60;6.93;;;;;;;;;;10029801;28;20073;-65
2022/09/07 21:29:18;;;;;;;10.57;6.53;;;;;;;;;;10033767;28;20416;-65
2022/09/07 21:34:10;;;;;;;10.40;7.57;;;;;;;;;;10029484;28;20078;-65
2022/09/07 21:39:05;;;;;;;14.25;7.80;;;;;;;;;;10033348;28;20085;-65
2022/09/07 21:44:04;;;;;;;11.73;8.88;;;;;;;;;;10028588;28;20492;-65
2022/09/07 21:48:58;;;;;;;10.60;7.80;;;;;;;;;;10030319;28;20062;-65
2022/09/07 21:53:56;;;;;;;12.35;9.70;;;;;;;;;;10017796;28;20061;-65
2022/09/07 21:58:56;;;;;;;12.15;10.00;;;;;;;;;;10029279;28;20049;-65
2022/09/07 22:04:01;;;;;;;11.27;9.77;;;;;;;;;;10015377;28;20053;-65
2022/09/07 22:08:55;;;;;;;17.52;10.75;;;;;;;;;;10032043;28;20111;-65
2022/09/07 22:13:48;;;;;;;14.60;12.48;;;;;;;;;;10033747;28;20050;-65
2022/09/07 22:18:44;;;;;;;21.30;10.40;;;;;;;;;;10028727;28;20100;-65
2022/09/07 22:23:42;;;;;;;17.25;9.60;;;;;;;;;;10027419;28;20556;-65
2022/09/07 22:28:37;;;;;;;32.17;12.73;;;;;;;;;;10012254;28;20061;-65
2022/09/07 22:33:31;;;;;;;20.08;12.43;;;;;;;;;;10039688;28;20571;-65
2022/09/07 22:38:27;;;;;;;26.25;15.00;;;;;;;;;;10038681;28;20056;-66
2022/09/07 22:43:20;;;;;;;31.50;17.13;;;;;;;;;;10041284;28;20076;-65
2022/09/07 22:48:14;;;;;;;24.10;15.25;;;;;;;;;;10041551;28;20447;-65
2022/09/07 22:53:07;;;;;;;14.90;13.35;;;;;;;;;;10041466;28;20049;-65
2022/09/07 22:58:01;;;;;;;18.92;14.05;;;;;;;;;;10039355;28;20051;-65
2022/09/07 23:02:55;;;;;;;18.77;13.48;;;;;;;;;;10040144;28;20056;-65
2022/09/07 23:07:50;;;;;;;25.52;12.57;;;;;;;;;;10038565;28;20108;-65
2022/09/07 23:12:43;;;;;;;12.98;11.32;;;;;;;;;;10036336;28;20057;-65
2022/09/07 23:17:39;;;;;;;16.23;11.25;;;;;;;;;;10022313;28;20046;-65
2022/09/07 23:22:36;;;;;;;17.48;10.38;;;;;;;;;;10037800;28;20053;-65
2022/09/07 23:27:30;;;;;;;20.52;13.93;;;;;;;;;;10038790;28;20042;-65
2022/09/07 23:32:24;;;;;;;19.42;15.55;;;;;;;;;;10037172;28;20045;-65
2022/09/07 23:37:17;;;;;;;23.02;18.52;;;;;;;;;;10041154;28;20550;-65
2022/09/07 23:42:11;;;;;;;18.95;16.13;;;;;;;;;;10035347;28;20504;-64
2022/09/07 23:47:04;;;;;;;29.50;23.00;;;;;;;;;;10037746;28;20131;-65
2022/09/07 23:51:58;;;;;;;35.20;25.60;;;;;;;;;;10036843;28;20053;-65
2022/09/07 23:56:54;;;;;;;33.53;24.58;;;;;;;;;;10033789;28;20053;-65
